x

Sentry Shoal (46131) Wave Buoy

8:00pm - Mon 27th Feb 2017 All times are PST. -8 hours from GMT.

  • Sig Wave height 0.7ft
  • Peak Period 2s
  • Wind
    11mph, 13mph gusts
  • Sea Temp 44°f
  • Air Temp 40°f
  • Sea Pressure 1007.1mb
  • Sentry Shoal
  • Sentry Shoal

More Historic Weather Station data

Upgrade to MSW Pro to gain access to the past 30 days of data for over 8000 Wavebouys and Weather Stations around the globe.

Join Pro

Comparision Forecast

View Surf forecast
   
Mon 02/27 8:00pm 0.7ft 2s 11 13 mph 1007.1mb 44f 40f
7:00pm 0.7ft 2s 11 13 mph 1006.8mb 44f 40f
6:00pm 0.3ft 4s 11 13 mph 1006.3mb 44f 40f
5:00pm 0.3ft 4s 9 11 mph 1006mb 44f 40f
4:00pm 0.3ft 4s 9
mph
1005.9mb 45f 40f
3:00pm 0.3ft 4s 7 9 mph 1005.9mb 44f 40f
2:00pm 0.3ft 5s 4 7 mph 1006.1mb 45f 39f
1:00pm 0.3ft 5s  -  2 mph 1006.3mb 45f 39f
12:00pm 0.3ft 6s  -  2 mph 1006.3mb 44f 38f
11:00am 0.3ft 6s 2 4 mph 1006.4mb 44f 38f
10:00am 0.3ft 5s 2 4 mph 1006.5mb 44f 38f
9:00am 0.3ft 5s 4 7 mph 1006.3mb 44f 37f
8:00am 0.3ft 2s 7 9 mph 1006.3mb 44f 37f
7:00am 0.3ft 2s 7 9 mph 1006.2mb 44f 37f
6:00am 0.3ft 2s 9 11 mph 1006.2mb 44f 36f
5:00am 0.7ft 2s 9 11 mph 1006.3mb 44f 36f
4:00am 0.7ft 2s 11 13 mph 1006.6mb 44f 37f
3:00am 0.7ft 3s 9 11 mph 1007mb 44f 38f
2:00am 1ft 3s 13 16 mph 1007.7mb 44f 38f
1:00am 1ft 2s 16 18 mph 1007.9mb 44f 38f
12:00am 1ft 3s 16 18 mph 1008.1mb 44f 38f
Sun 02/26 11:00pm 1.3ft 3s 16 18 mph 1008.1mb 44f 38f
10:00pm 1.3ft 3s 16 18 mph 1008.6mb 44f 39f
9:00pm 1.3ft 3s 18
mph
1008.7mb 44f 39f
8:00pm 1.3ft 3s 16 18 mph 1008.6mb 44f 40f
7:00pm 1.3ft 3s 16 18 mph 1008.7mb 44f 41f
6:00pm 1.3ft 3s 16 18 mph 1008.7mb 44f 44f
5:00pm 1.3ft 3s 16 20 mph 1008.7mb 44f 44f
4:00pm 1.3ft 3s 18 20 mph 1008.6mb 44f 44f
3:00pm 1.6ft 3s 18 20 mph 1008.9mb 44f 44f
2:00pm 1.6ft 3s 18 22 mph 1009mb 44f 43f
1:00pm 1.6ft 3s 18 20 mph 1009.3mb 44f 42f
12:00pm 1.6ft 3s 18 20 mph 1009.5mb 44f 41f
11:00am 1.6ft 3s 18 20 mph 1009.7mb 44f 40f
10:00am 1.6ft 3s 16 20 mph 1009.6mb 44f 38f
9:00am 1ft 2s 18 20 mph 1009.3mb 44f 38f
8:00am 0.7ft 2s 13 16 mph 1009mb 44f 37f
7:00am 1ft 2s 11 13 mph 1008.5mb 44f 37f
6:00am 1ft 4s 11 13 mph 1008.5mb 44f 37f
5:00am 1ft 2s 9 11 mph 1008.3mb 44f 35f
4:00am 1.3ft 2s 13
mph
1008.3mb 44f 35f
3:00am  -   -  11
mph
1008.5mb - 35f
2:00am 1.6ft 4s 13 16 mph 1008.9mb 44f 35f
1:00am 1.6ft 4s 11 13 mph 1009.4mb 44f 35f
12:00am 2ft 3s 13 18 mph 1009.7mb 44f 36f
Sat 02/25 11:00pm 2ft 3s 18 22 mph 1010.2mb 44f 36f
10:00pm 1.6ft 3s 16 18 mph 1011.2mb 44f 36f
9:00pm 0.7ft 2s 16 20 mph 1012.2mb 44f 36f
8:00pm 0.3ft 4s 9 11 mph 1013.3mb 44f 36f
7:00pm 0.3ft 4s 4 7 mph 1014.6mb 44f 36f
6:00pm 0.3ft 4s 7 9 mph 1015.5mb 44f 37f
5:00pm 0.3ft 4s 2 4 mph 1016.5mb 44f 38f
4:00pm 0.3ft 4s 4
mph
1017.5mb 44f 39f
3:00pm 0.3ft 4s  -  2 mph 1018.6mb 45f 39f
2:00pm 0.3ft 4s  -  2 mph 1019.4mb 45f 40f
1:00pm 0.3ft 4s  -  2 mph 1020.8mb 45f 39f
12:00pm 0.3ft 5s  -  mph 1021.8mb 44f 39f
11:00am 0.3ft 5s 4
mph
1022.8mb 44f 37f
10:00am 0.3ft 2s 4 7 mph 1023.3mb 44f 37f
9:00am 0.7ft 2s 4 9 mph 1023.5mb 44f 37f
8:00am 0.7ft 2s 7 9 mph 1023.9mb 44f 36f
7:00am 0.3ft 2s 11 13 mph 1024.5mb 44f 37f
6:00am 0.7ft 2s 9 11 mph 1024.4mb 44f 37f
5:00am 0.7ft 2s 9 13 mph 1024.8mb 44f 37f
4:00am 0.7ft 2s 11 13 mph 1025.1mb 44f 37f
3:00am 1ft 2s 11 13 mph 1025.4mb 44f 38f
2:00am 1ft 2s 13
mph
1025.8mb 44f 38f
1:00am 1ft 2s 11 13 mph 1026.1mb 44f 38f
12:00am 1ft 2s 13 16 mph 1026.4mb 44f 38f
Fri 02/24 11:00pm 0.7ft 2s 13 16 mph 1026.4mb 44f 38f
10:00pm 0.7ft 2s 11 13 mph 1026.1mb 44f 39f
9:00pm 0.3ft 2s 11 13 mph 1025.9mb 44f 38f
8:00pm 0.3ft 5s 9 11 mph 1025.6mb 44f 39f
7:00pm 0.3ft 4s 4 7 mph 1025.5mb 44f 40f
6:00pm 0.3ft 3s 4
mph
1025.4mb 44f 40f
5:00pm 0.3ft 4s 4 7 mph 1024.7mb 44f 39f
4:00pm 0.3ft 2s 2
mph
1024.6mb 44f 38f
3:00pm 0.3ft 3s  -  2 mph 1024.4mb 44f 40f
2:00pm 0.7ft 3s 2 4 mph 1024mb 44f 38f
1:00pm 0.7ft 3s 7 9 mph 1024mb 44f 38f
12:00pm 0.3ft 5s 11 13 mph 1023.8mb 44f 37f
11:00am 0.3ft 5s 4 7 mph 1023.4mb 44f 37f
10:00am 0.3ft 5s 4 9 mph 1022.8mb 44f 35f
9:00am 0.3ft 5s 4 9 mph 1022.1mb 44f 36f
8:00am 0.3ft 5s 4 7 mph 1021.3mb 44f 36f
7:00am 0.3ft 5s 4 7 mph 1020.7mb 44f 35f
6:00am 0.3ft 2s 4 7 mph 1020.4mb 44f 34f